createdAt,value
2023-05-10T00:00:23.566Z,100632.34
2023-05-10T00:03:26.195Z,100640.03
2023-05-10T00:06:29.002Z,100646.88
2023-05-10T00:09:31.642Z,100641.91
2023-05-10T00:12:34.119Z,100638.94
2023-05-10T00:15:36.569Z,100633.56
2023-05-10T00:18:39.103Z,100631.00
2023-05-10T00:21:41.764Z,100616.63
2023-05-10T00:24:44.206Z,100627.88
2023-05-10T00:27:46.622Z,100631.72
2023-05-10T00:30:49.089Z,100636.59
2023-05-10T00:33:51.562Z,100629.38
2023-05-10T00:36:53.987Z,100635.00
2023-05-10T00:39:57.673Z,100602.41
2023-05-10T00:43:01.523Z,100627.19
2023-05-10T00:46:05.166Z,100618.16
2023-05-10T00:49:08.555Z,100615.53
2023-05-10T00:52:11.289Z,100625.75
2023-05-10T00:55:15.039Z,100629.69
2023-05-10T00:58:18.139Z,100607.06
2023-05-10T01:01:20.980Z,100597.28
2023-05-10T01:04:26.597Z,100608.47
2023-05-10T01:07:29.763Z,100620.72
2023-05-10T01:10:32.726Z,100607.53
2023-05-10T01:13:38.958Z,100610.16
2023-05-10T01:16:43.238Z,100606.72
2023-05-10T01:19:45.748Z,100610.75
2023-05-10T01:23:10.033Z,100618.94
2023-05-10T01:26:31.963Z,100618.50
2023-05-10T01:30:21.746Z,100615.88
2023-05-10T01:33:30.795Z,100614.28
2023-05-10T01:36:59.557Z,100619.88
2023-05-10T01:40:31.193Z,100619.91
2023-05-10T01:43:41.355Z,100619.47
2023-05-10T01:46:44.144Z,100622.44
2023-05-10T01:49:53.065Z,100612.22
2023-05-10T01:52:58.983Z,100596.00
2023-05-10T01:56:03.156Z,100597.16
2023-05-10T01:59:09.860Z,100591.34
2023-05-10T02:02:14.554Z,100615.31
2023-05-10T02:05:18.553Z,100608.50
2023-05-10T02:08:22.865Z,100596.31
2023-05-10T02:11:26.534Z,100588.16
2023-05-10T02:14:31.858Z,100597.41
2023-05-10T02:17:36.471Z,100570.41
2023-05-10T02:20:40.076Z,100578.22
2023-05-10T02:23:44.219Z,100596.22
2023-05-10T02:26:49.390Z,100583.00
2023-05-10T02:29:52.643Z,100586.63
2023-05-10T02:32:56.589Z,100600.41
2023-05-10T02:36:00.285Z,100597.81
2023-05-10T02:39:03.653Z,100601.66
2023-05-10T02:42:06.654Z,100582.00
2023-05-10T02:45:13.743Z,100585.38
2023-05-10T02:48:17.999Z,100581.28
2023-05-10T02:51:25.679Z,100608.28
2023-05-10T02:54:34.117Z,100607.69
2023-05-10T02:57:42.317Z,100596.13
2023-05-10T03:00:44.931Z,100601.09
2023-05-10T03:03:47.871Z,100605.47
2023-05-10T03:06:51.421Z,100586.03
2023-05-10T03:09:54.341Z,100577.06
2023-05-10T03:13:22.033Z,100598.63
2023-05-10T03:16:30.566Z,100600.78
2023-05-10T03:19:51.985Z,100585.41
2023-05-10T03:23:06.293Z,100594.25
2023-05-10T03:26:09.760Z,100596.69
2023-05-10T03:29:14.174Z,100605.13
2023-05-10T03:32:16.806Z,100593.53
2023-05-10T03:35:19.274Z,100577.56
2023-05-10T03:38:22.096Z,100597.00
2023-05-10T03:41:24.809Z,100602.41
2023-05-10T03:44:27.226Z,100604.44
2023-05-10T03:47:30.867Z,100599.59
2023-05-10T03:50:34.167Z,100616.47
2023-05-10T03:53:36.786Z,100612.63
2023-05-10T03:56:39.434Z,100617.25
2023-05-10T03:59:42.360Z,100608.22
2023-05-10T04:02:46.254Z,100608.03
2023-05-10T04:06:03.512Z,100603.44
2023-05-10T04:09:06.408Z,100605.63
2023-05-10T04:12:10.858Z,100592.63
2023-05-10T04:15:13.728Z,100600.03
2023-05-10T04:18:16.527Z,100601.22
2023-05-10T04:21:19.007Z,100608.84
2023-05-10T04:24:21.491Z,100594.22
2023-05-10T04:27:23.991Z,100591.00
2023-05-10T04:30:26.582Z,100601.44
2023-05-10T04:33:29.065Z,100583.63
2023-05-10T04:36:33.495Z,100609.25
2023-05-10T04:39:36.752Z,100610.81
2023-05-10T04:42:42.142Z,100610.81
2023-05-10T04:45:44.531Z,100580.78
2023-05-10T04:48:46.967Z,100594.78
2023-05-10T04:51:49.537Z,100605.22
2023-05-10T04:54:52.451Z,100604.25
2023-05-10T04:57:57.785Z,100614.88
2023-05-10T05:01:10.512Z,100603.03
2023-05-10T05:04:13.094Z,100607.63
2023-05-10T05:07:15.832Z,100607.25
2023-05-10T05:10:18.737Z,100597.22
2023-05-10T05:13:21.595Z,100614.06
2023-05-10T05:16:24.527Z,100621.25
2023-05-10T05:19:28.530Z,100622.88
2023-05-10T05:22:32.919Z,100605.81
2023-05-10T05:25:36.650Z,100623.06
2023-05-10T05:28:40.231Z,100620.25
2023-05-10T05:31:43.694Z,100622.81
2023-05-10T05:34:47.313Z,100619.75
2023-05-10T05:37:50.536Z,100613.72
2023-05-10T05:40:53.128Z,100624.06
2023-05-10T05:43:58.502Z,100636.94
2023-05-10T05:47:01.404Z,100623.94
2023-05-10T05:50:04.799Z,100639.84
2023-05-10T05:53:07.793Z,100624.78
2023-05-10T05:56:10.913Z,100636.09
2023-05-10T05:59:14.030Z,100638.59
2023-05-10T06:02:16.917Z,100644.91
2023-05-10T06:05:20.233Z,100639.84
2023-05-10T06:08:23.827Z,100631.63
2023-05-10T06:11:27.273Z,100642.84
2023-05-10T06:14:30.438Z,100630.53
2023-05-10T06:17:33.654Z,100641.09
2023-05-10T06:20:36.480Z,100650.91
2023-05-10T06:23:39.959Z,100635.81
2023-05-10T06:26:42.588Z,100649.13
2023-05-10T06:29:45.040Z,100631.50
2023-05-10T06:32:48.342Z,100649.66
2023-05-10T06:35:51.438Z,100636.50
2023-05-10T06:38:54.166Z,100641.16
2023-05-10T06:41:57.159Z,100646.00
2023-05-10T06:45:00.668Z,100638.38
2023-05-10T06:48:03.901Z,100639.13
2023-05-10T06:51:06.867Z,100651.22
2023-05-10T06:54:30.325Z,100637.63
2023-05-10T06:57:32.939Z,100629.25
2023-05-10T07:00:35.807Z,100637.38
2023-05-10T07:03:38.739Z,100647.38
2023-05-10T07:06:41.756Z,100641.25
2023-05-10T07:09:44.680Z,100639.50
2023-05-10T07:12:48.703Z,100647.84
2023-05-10T07:15:51.362Z,100639.69
2023-05-10T07:18:54.649Z,100648.91
2023-05-10T07:21:57.222Z,100641.09
2023-05-10T07:24:59.617Z,100642.66
2023-05-10T07:28:02.278Z,100626.78
2023-05-10T07:31:05.162Z,100644.72
2023-05-10T07:34:07.817Z,100642.75
2023-05-10T07:37:10.380Z,100624.69
2023-05-10T07:40:13.165Z,100628.59
2023-05-10T07:43:15.531Z,100620.69
2023-05-10T07:46:18.319Z,100616.16
2023-05-10T07:49:21.137Z,100637.91
2023-05-10T07:52:23.578Z,100636.06
2023-05-10T07:55:27.880Z,100634.81
2023-05-10T07:58:31.504Z,100628.47
2023-05-10T08:01:36.088Z,100633.91
2023-05-10T08:04:38.625Z,100632.88
2023-05-10T08:07:42.011Z,100625.47
2023-05-10T08:10:45.279Z,100635.59
2023-05-10T08:13:49.345Z,100636.31
2023-05-10T08:16:51.879Z,100642.16
2023-05-10T08:19:54.874Z,100623.56
2023-05-10T08:22:57.343Z,100630.16
2023-05-10T08:26:00.843Z,100632.34
2023-05-10T08:29:03.576Z,100635.88
2023-05-10T08:32:06.277Z,100643.44
2023-05-10T08:35:08.765Z,100628.72
2023-05-10T08:38:11.422Z,100633.84
2023-05-10T08:41:14.914Z,100630.47
2023-05-10T08:44:19.318Z,100629.06
2023-05-10T08:47:22.317Z,100622.00
2023-05-10T08:50:26.412Z,100635.72
2023-05-10T08:53:34.404Z,100628.19
2023-05-10T08:56:37.547Z,100622.66
2023-05-10T08:59:41.618Z,100622.63
2023-05-10T09:02:45.258Z,100623.56
2023-05-10T09:05:48.787Z,100625.56
2023-05-10T09:08:52.082Z,100633.66
2023-05-10T09:11:55.620Z,100633.03
2023-05-10T09:15:00.807Z,100620.09
2023-05-10T09:18:03.604Z,100617.09
2023-05-10T09:21:06.493Z,100627.34
2023-05-10T09:24:10.095Z,100638.59
2023-05-10T09:27:12.534Z,100641.88
2023-05-10T09:30:25.459Z,100627.69
2023-05-10T09:33:28.386Z,100626.34
2023-05-10T09:36:30.900Z,100620.13
2023-05-10T09:39:38.562Z,100625.41
2023-05-10T09:42:43.587Z,100627.88
2023-05-10T09:45:50.863Z,100612.34
2023-05-10T09:48:53.790Z,100627.03
2023-05-10T09:52:07.503Z,100612.31
2023-05-10T09:55:10.317Z,100595.34
2023-05-10T09:58:16.121Z,100598.41
2023-05-10T10:01:18.646Z,100594.25
2023-05-10T10:04:22.385Z,100607.81
2023-05-10T10:07:26.613Z,100606.47
2023-05-10T10:10:29.679Z,100586.41
2023-05-10T10:13:33.256Z,100591.03
2023-05-10T10:16:36.399Z,100596.56
2023-05-10T10:19:39.240Z,100590.41
2023-05-10T10:22:42.236Z,100604.41
2023-05-10T10:25:49.005Z,100587.81
2023-05-10T10:28:57.482Z,100579.16
2023-05-10T10:32:18.638Z,100583.94
2023-05-10T10:35:21.365Z,100575.81
2023-05-10T10:38:24.393Z,100577.84
2023-05-10T10:41:36.503Z,100578.16
2023-05-10T10:44:39.777Z,100574.03
2023-05-10T10:47:44.550Z,100555.66
2023-05-10T10:50:50.346Z,100562.69
2023-05-10T10:53:53.015Z,100571.69
2023-05-10T10:57:15.528Z,100564.13
2023-05-10T11:00:22.791Z,100545.91
2023-05-10T11:03:26.564Z,100545.53
2023-05-10T11:06:34.624Z,100548.66
2023-05-10T11:09:41.223Z,100538.69
2023-05-10T11:13:04.510Z,100532.84
2023-05-10T11:16:18.906Z,100529.25
2023-05-10T11:19:21.735Z,100525.25
2023-05-10T11:22:26.818Z,100524.34
2023-05-10T11:25:29.670Z,100527.72
2023-05-10T11:28:33.090Z,100528.81
2023-05-10T11:31:36.406Z,100534.63
2023-05-10T11:34:39.804Z,100513.00
2023-05-10T11:37:44.752Z,100531.47
2023-05-10T11:40:47.867Z,100516.84
2023-05-10T11:43:52.414Z,100520.97
2023-05-10T11:46:55.021Z,100507.34
2023-05-10T11:49:58.337Z,100495.75
2023-05-10T11:53:00.967Z,100498.22
2023-05-10T11:56:07.702Z,100506.69
2023-05-10T11:59:10.730Z,100513.28
2023-05-10T12:02:17.053Z,100498.91
2023-05-10T12:05:19.634Z,100507.84
2023-05-10T12:08:27.465Z,100516.00
2023-05-10T12:11:30.031Z,100512.16
2023-05-10T12:14:36.215Z,100499.78
2023-05-10T12:17:43.186Z,100502.63
2023-05-10T12:20:46.174Z,100507.56
2023-05-10T12:23:52.342Z,100499.97
2023-05-10T12:26:54.790Z,100502.66
2023-05-10T12:30:00.766Z,100510.53
2023-05-10T12:33:09.206Z,100501.75
2023-05-10T12:36:13.671Z,100470.97
2023-05-10T12:39:16.791Z,100503.56
2023-05-10T12:42:19.346Z,100490.19
2023-05-10T12:45:22.033Z,100498.16
2023-05-10T12:48:24.791Z,100477.88
2023-05-10T12:51:27.362Z,100484.19
2023-05-10T12:54:30.183Z,100482.66
2023-05-10T12:57:32.663Z,100489.78
2023-05-10T13:00:35.109Z,100471.06
2023-05-10T13:03:37.640Z,100456.44
2023-05-10T13:06:40.173Z,100454.06
2023-05-10T13:09:42.804Z,100468.16
2023-05-10T13:12:46.273Z,100437.28
2023-05-10T13:15:49.784Z,100436.59
2023-05-10T13:18:52.177Z,100456.88
2023-05-10T13:21:54.636Z,100448.22
2023-05-10T13:24:57.058Z,100448.28
2023-05-10T13:27:59.538Z,100444.69
2023-05-10T13:31:03.371Z,100432.63
2023-05-10T13:34:06.375Z,100425.28
2023-05-10T13:37:08.806Z,100421.53
2023-05-10T13:40:11.451Z,100425.75
2023-05-10T13:43:13.960Z,100416.34
2023-05-10T13:46:16.537Z,100415.56
2023-05-10T13:49:19.062Z,100418.63
2023-05-10T13:52:22.335Z,100422.41
2023-05-10T13:55:25.501Z,100412.56
2023-05-10T13:58:27.970Z,100398.69
2023-05-10T14:01:30.492Z,100389.66
2023-05-10T14:04:33.077Z,100396.66
2023-05-10T14:07:35.767Z,100400.44
2023-05-10T14:10:39.070Z,100400.81
2023-05-10T14:13:41.541Z,100393.56
2023-05-10T14:16:46.682Z,100404.72
2023-05-10T14:19:49.202Z,100381.19
2023-05-10T14:22:51.859Z,100391.53
2023-05-10T14:25:55.522Z,100395.97
2023-05-10T14:28:58.221Z,100378.22
2023-05-10T14:32:00.872Z,100388.06
2023-05-10T14:35:03.979Z,100382.34
2023-05-10T14:38:06.687Z,100384.72
2023-05-10T14:41:11.264Z,100390.34
2023-05-10T14:44:14.396Z,100380.78
2023-05-10T14:47:16.824Z,100375.72
2023-05-10T14:50:35.317Z,100385.22
2023-05-10T14:53:39.460Z,100387.66
2023-05-10T14:56:42.620Z,100392.97
2023-05-10T14:59:45.068Z,100379.53
2023-05-10T15:02:49.127Z,100377.47
2023-05-10T15:05:52.656Z,100395.56
2023-05-10T15:08:55.019Z,100388.84
2023-05-10T15:11:57.459Z,100379.16
2023-05-10T15:14:59.856Z,100385.53
2023-05-10T15:18:02.540Z,100373.72
2023-05-10T15:21:05.093Z,100393.94
2023-05-10T15:24:07.677Z,100360.16
2023-05-10T15:27:10.123Z,100377.25
2023-05-10T15:30:13.264Z,100379.66
2023-05-10T15:33:15.817Z,100387.91
2023-05-10T15:36:19.031Z,100383.75
2023-05-10T15:39:21.606Z,100379.72
2023-05-10T15:42:24.060Z,100372.38
2023-05-10T15:45:26.472Z,100381.09
2023-05-10T15:48:29.142Z,100377.97
2023-05-10T15:51:34.871Z,100371.44
2023-05-10T15:54:39.543Z,100377.59
2023-05-10T15:57:43.658Z,100368.94
2023-05-10T16:00:46.158Z,100374.00
2023-05-10T16:03:48.562Z,100368.63
2023-05-10T16:06:50.985Z,100370.41
2023-05-10T16:09:53.452Z,100364.03
2023-05-10T16:12:56.239Z,100364.06
2023-05-10T16:15:58.712Z,100375.38
2023-05-10T16:19:02.422Z,100368.28
2023-05-10T16:22:05.189Z,100366.88
2023-05-10T16:25:08.337Z,100370.47
2023-05-10T16:28:10.934Z,100355.72
2023-05-10T16:31:13.930Z,100375.25
2023-05-10T16:34:16.583Z,100369.06
2023-05-10T16:37:19.043Z,100381.50
2023-05-10T16:40:22.028Z,100358.16
2023-05-10T16:43:26.139Z,100378.22
2023-05-10T16:46:28.937Z,100377.22
2023-05-10T16:49:31.605Z,100381.97
2023-05-10T16:52:35.379Z,100385.03
2023-05-10T16:55:38.037Z,100385.44
2023-05-10T16:58:40.508Z,100387.13
2023-05-10T17:01:43.000Z,100389.38
2023-05-10T17:04:45.618Z,100387.63
2023-05-10T17:07:48.268Z,100400.19
2023-05-10T17:10:50.628Z,100394.34
2023-05-10T17:16:55.692Z,100393.75
2023-05-10T17:19:58.796Z,100406.97
2023-05-10T17:23:03.223Z,100382.53
2023-05-10T17:26:06.858Z,100403.19
2023-05-10T17:29:09.422Z,100408.28
2023-05-10T17:32:11.877Z,100394.59
2023-05-10T17:35:14.616Z,100407.47
2023-05-10T17:38:17.376Z,100394.75
2023-05-10T17:41:19.951Z,100417.69
2023-05-10T17:44:22.421Z,100400.72
2023-05-10T17:47:24.994Z,100397.00
2023-05-10T17:50:27.636Z,100413.50
2023-05-10T17:53:30.631Z,100409.72
2023-05-10T17:56:33.020Z,100416.28
2023-05-10T17:59:35.504Z,100409.28
2023-05-10T18:02:38.062Z,100425.09
2023-05-10T18:05:40.760Z,100425.50
2023-05-10T18:08:43.337Z,100415.63
2023-05-10T18:11:45.801Z,100421.53
2023-05-10T18:14:48.298Z,100431.03
2023-05-10T18:17:50.870Z,100428.28
2023-05-10T18:20:56.708Z,100440.31
2023-05-10T18:23:59.160Z,100438.59
2023-05-10T18:27:02.013Z,100430.47
2023-05-10T18:30:06.258Z,100427.72
2023-05-10T18:33:11.912Z,100421.78
2023-05-10T18:36:14.695Z,100445.72
2023-05-10T18:39:18.681Z,100439.50
2023-05-10T18:42:21.322Z,100442.50
2023-05-10T18:45:23.870Z,100443.94
2023-05-10T18:48:26.671Z,100449.19
2023-05-10T18:51:32.564Z,100460.84
2023-05-10T18:54:35.026Z,100448.53
2023-05-10T18:57:41.524Z,100470.09
2023-05-10T19:00:44.489Z,100452.09
2023-05-10T19:03:46.982Z,100453.88
2023-05-10T19:06:49.554Z,100451.00
2023-05-10T19:09:52.239Z,100467.94
2023-05-10T19:12:55.064Z,100469.47
2023-05-10T19:16:16.971Z,100476.13
2023-05-10T19:19:19.649Z,100470.31
2023-05-10T19:22:35.300Z,100457.91
2023-05-10T19:25:45.557Z,100454.03
2023-05-10T19:28:51.002Z,100473.75
2023-05-10T19:31:53.885Z,100449.50
2023-05-10T19:34:56.985Z,100465.56
2023-05-10T19:37:59.444Z,100472.41
2023-05-10T19:41:02.042Z,100466.50
2023-05-10T19:44:04.932Z,100439.34
2023-05-10T19:47:09.544Z,100468.44
2023-05-10T19:50:12.611Z,100476.31
2023-05-10T19:53:15.434Z,100465.28
2023-05-10T19:56:18.476Z,100463.50
2023-05-10T19:59:21.152Z,100470.22
2023-05-10T20:02:23.663Z,100463.81
2023-05-10T20:05:27.669Z,100461.78
2023-05-10T20:08:31.050Z,100472.84
2023-05-10T20:11:34.256Z,100454.28
2023-05-10T20:14:37.124Z,100461.91
2023-05-10T20:17:39.937Z,100461.97
2023-05-10T20:20:43.214Z,100463.94
2023-05-10T20:23:45.649Z,100475.31
2023-05-10T20:26:48.160Z,100466.97
2023-05-10T20:29:50.659Z,100482.13
2023-05-10T20:32:53.613Z,100480.56
2023-05-10T20:35:56.301Z,100465.44
2023-05-10T20:38:58.671Z,100465.78
2023-05-10T20:42:01.202Z,100466.56
2023-05-10T20:45:04.491Z,100468.56
2023-05-10T20:48:07.828Z,100467.75
2023-05-10T20:51:10.307Z,100475.47
2023-05-10T20:54:12.744Z,100466.16
2023-05-10T20:57:15.533Z,100465.03
2023-05-10T21:00:18.287Z,100466.41
2023-05-10T21:03:20.974Z,100470.63
2023-05-10T21:06:23.517Z,100455.25
2023-05-10T21:09:25.922Z,100454.47
2023-05-10T21:12:28.404Z,100455.34
2023-05-10T21:15:30.877Z,100461.06
2023-05-10T21:18:33.326Z,100468.34
2023-05-10T21:21:36.025Z,100470.03
2023-05-10T21:24:38.565Z,100464.59
2023-05-10T21:27:40.934Z,100475.50
2023-05-10T21:30:43.346Z,100472.44
2023-05-10T21:33:45.926Z,100470.28
2023-05-10T21:36:48.514Z,100472.22
2023-05-10T21:39:52.868Z,100475.88
2023-05-10T21:42:55.437Z,100468.94
2023-05-10T21:45:57.867Z,100463.56
2023-05-10T21:49:00.360Z,100477.78
2023-05-10T21:52:02.791Z,100476.91
2023-05-10T21:55:06.642Z,100480.41
2023-05-10T21:58:09.088Z,100464.28
2023-05-10T22:01:11.589Z,100457.53
2023-05-10T22:04:14.130Z,100470.84
2023-05-10T22:07:17.073Z,100479.16
2023-05-10T22:10:19.870Z,100469.28
2023-05-10T22:13:22.397Z,100482.91
2023-05-10T22:16:25.109Z,100481.78
2023-05-10T22:19:27.803Z,100477.56
2023-05-10T22:22:30.137Z,100477.13
2023-05-10T22:25:32.648Z,100466.19
2023-05-10T22:28:35.167Z,100488.59
2023-05-10T22:31:38.277Z,100468.00
2023-05-10T22:34:43.120Z,100471.78
2023-05-10T22:37:45.513Z,100458.09
2023-05-10T22:40:47.891Z,100478.00
2023-05-10T22:43:50.501Z,100473.81
2023-05-10T22:46:52.968Z,100488.56
2023-05-10T22:49:56.172Z,100483.09
2023-05-10T22:52:58.661Z,100494.16
2023-05-10T22:56:01.617Z,100484.59
2023-05-10T22:59:04.163Z,100506.88
2023-05-10T23:02:07.094Z,100491.84
2023-05-10T23:05:10.009Z,100494.56
2023-05-10T23:08:12.981Z,100480.88
2023-05-10T23:11:15.501Z,100482.81
2023-05-10T23:14:17.857Z,100485.72
2023-05-10T23:17:20.563Z,100477.91
2023-05-10T23:20:22.970Z,100478.19
2023-05-10T23:23:25.651Z,100476.03
2023-05-10T23:26:28.129Z,100487.19
2023-05-10T23:29:32.046Z,100463.34
2023-05-10T23:32:34.536Z,100467.34
2023-05-10T23:35:37.173Z,100479.53
2023-05-10T23:38:39.647Z,100483.44
2023-05-10T23:41:42.758Z,100480.34
2023-05-10T23:44:45.462Z,100491.72
2023-05-10T23:47:47.973Z,100492.94
2023-05-10T23:50:50.735Z,100493.94
2023-05-10T23:53:53.180Z,100505.78
2023-05-10T23:56:55.732Z,100490.19
2023-05-10T23:59:58.381Z,100489.72
